createdAt,value
2018-07-09T00:00:17.646Z,69.62
2018-07-09T00:02:46.708Z,70.75
2018-07-09T00:05:15.939Z,71.52
2018-07-09T00:07:45.004Z,71.13
2018-07-09T00:10:18.665Z,71.78
2018-07-09T00:12:47.931Z,72.64
2018-07-09T00:15:17.378Z,73.98
2018-07-09T00:17:46.558Z,73.92
2018-07-09T00:20:15.508Z,74.38
2018-07-09T00:22:45.299Z,73.63
2018-07-09T00:25:14.325Z,73.83
2018-07-09T00:27:43.411Z,74.14
2018-07-09T00:30:12.498Z,73.80
2018-07-09T00:32:41.479Z,73.97
2018-07-09T00:35:10.855Z,73.98
2018-07-09T00:37:40.012Z,73.79
2018-07-09T00:40:09.055Z,73.61
2018-07-09T00:42:38.073Z,74.28
2018-07-09T00:45:07.893Z,73.63
2018-07-09T00:47:36.991Z,74.49
2018-07-09T00:50:08.068Z,75.19
2018-07-09T00:52:37.028Z,75.52
2018-07-09T00:55:08.045Z,77.02
2018-07-09T00:57:37.361Z,76.75
2018-07-09T01:00:08.030Z,76.20
2018-07-09T01:02:37.350Z,75.58
2018-07-09T01:05:08.043Z,75.68
2018-07-09T01:07:37.699Z,76.40
2018-07-09T01:10:08.471Z,76.50
2018-07-09T01:12:37.402Z,76.06
2018-07-09T01:15:08.189Z,75.91
2018-07-09T01:17:37.350Z,76.33
2018-07-09T01:20:07.859Z,76.78
2018-07-09T01:22:37.161Z,77.63
2018-07-09T01:25:10.446Z,77.73
2018-07-09T01:27:39.394Z,77.92
2018-07-09T01:30:13.460Z,77.44
2018-07-09T01:32:42.709Z,76.86
2018-07-09T01:35:12.883Z,77.85
2018-07-09T01:37:42.767Z,78.21
2018-07-09T01:40:12.344Z,77.70
2018-07-09T01:42:41.506Z,78.05
2018-07-09T01:45:10.772Z,78.43
2018-07-09T01:47:39.830Z,78.64
2018-07-09T01:50:08.868Z,78.88
2018-07-09T01:52:38.007Z,78.87
2018-07-09T01:55:07.136Z,79.29
2018-07-09T01:57:36.208Z,78.82
2018-07-09T02:00:07.214Z,79.09
2018-07-09T02:02:36.313Z,79.64
2018-07-09T02:05:08.761Z,79.76
2018-07-09T02:07:38.015Z,79.73
2018-07-09T02:10:08.400Z,79.99
2018-07-09T02:12:37.838Z,79.38
2018-07-09T02:15:06.948Z,79.42
2018-07-09T02:17:36.029Z,80.29
2018-07-09T02:20:08.738Z,80.25
2018-07-09T02:22:38.243Z,80.27
2018-07-09T02:25:07.514Z,80.06
2018-07-09T02:27:36.642Z,80.82
2018-07-09T02:30:07.140Z,80.55
2018-07-09T02:32:36.261Z,80.75
2018-07-09T02:35:07.211Z,80.75
2018-07-09T02:37:36.323Z,80.49
2018-07-09T02:40:08.800Z,80.84
2018-07-09T02:42:38.050Z,81.19
2018-07-09T02:45:07.494Z,81.59
2018-07-09T02:47:36.615Z,81.80
2018-07-09T02:50:07.391Z,81.35
2018-07-09T02:52:40.759Z,82.04
2018-07-09T02:55:09.766Z,82.09
2018-07-09T02:57:38.895Z,81.40
2018-07-09T03:00:08.171Z,81.34
2018-07-09T03:02:37.271Z,81.34
2018-07-09T03:05:07.279Z,81.49
2018-07-09T03:07:36.355Z,81.61
2018-07-09T03:10:08.762Z,81.16
2018-07-09T03:12:37.855Z,81.93
2018-07-09T03:15:07.084Z,82.17
2018-07-09T03:17:36.103Z,82.23
2018-07-09T03:20:08.412Z,82.85
2018-07-09T03:22:37.509Z,82.97
2018-07-09T03:25:07.117Z,83.06
2018-07-09T03:27:36.410Z,83.26
2018-07-09T03:30:07.662Z,83.64
2018-07-09T03:32:36.718Z,83.34
2018-07-09T03:35:06.977Z,83.27
2018-07-09T03:37:36.446Z,83.54
2018-07-09T03:40:09.471Z,84.33
2018-07-09T03:42:38.554Z,84.62
2018-07-09T03:45:07.917Z,84.84
2018-07-09T03:47:37.143Z,84.92
2018-07-09T03:50:07.197Z,85.60
2018-07-09T03:52:36.846Z,84.87
2018-07-09T03:55:07.667Z,84.17
2018-07-09T03:57:36.890Z,84.25
2018-07-09T04:00:07.051Z,83.51
2018-07-09T04:02:37.344Z,83.72
2018-07-09T04:05:07.605Z,84.05
2018-07-09T04:07:36.653Z,83.80
2018-07-09T04:10:07.418Z,84.71
2018-07-09T04:12:36.471Z,84.80
2018-07-09T04:15:07.336Z,85.12
2018-07-09T04:17:36.527Z,84.21
2018-07-09T04:20:07.486Z,84.31
2018-07-09T04:22:36.782Z,83.76
2018-07-09T04:25:07.606Z,83.71
2018-07-09T04:27:37.298Z,83.97
2018-07-09T04:30:07.427Z,83.80
2018-07-09T04:32:36.515Z,83.80
2018-07-09T04:35:09.672Z,83.64
2018-07-09T04:37:38.924Z,83.53
2018-07-09T04:40:08.345Z,82.68
2018-07-09T04:42:37.465Z,83.35
2018-07-09T04:45:07.650Z,83.44
2018-07-09T04:47:36.724Z,82.79
2018-07-09T04:50:07.462Z,81.67
2018-07-09T04:52:36.539Z,80.81
2018-07-09T04:55:07.515Z,80.75
2018-07-09T04:57:36.818Z,79.73
2018-07-09T05:00:07.071Z,78.01
2018-07-09T05:02:36.328Z,76.44
2018-07-09T05:05:08.914Z,75.08
2018-07-09T05:07:38.013Z,75.15
2018-07-09T05:10:08.041Z,74.23
2018-07-09T05:12:38.396Z,73.68
2018-07-09T05:15:07.932Z,73.44
2018-07-09T05:17:37.416Z,74.15
2018-07-09T05:20:07.443Z,73.69
2018-07-09T05:22:37.226Z,73.23
2018-07-09T05:25:08.195Z,74.72
2018-07-09T05:27:37.170Z,74.53
2018-07-09T05:30:07.791Z,73.35
2018-07-09T05:32:37.236Z,72.99
2018-07-09T05:35:07.484Z,71.56
2018-07-09T05:37:37.145Z,71.74
2018-07-09T05:40:08.261Z,71.60
2018-07-09T05:42:39.100Z,72.11
2018-07-09T05:45:08.252Z,71.59
2018-07-09T05:47:37.818Z,71.26
2018-07-09T05:50:11.685Z,71.33
2018-07-09T05:52:40.988Z,72.78
2018-07-09T05:55:10.560Z,72.70
2018-07-09T05:57:39.864Z,71.68
2018-07-09T06:00:08.959Z,69.42
2018-07-09T06:02:38.486Z,71.96
2018-07-09T06:05:07.814Z,71.15
2018-07-09T06:07:37.091Z,70.73
2018-07-09T06:10:07.841Z,71.00
2018-07-09T06:12:36.886Z,70.34
2018-07-09T06:15:07.515Z,71.34
2018-07-09T06:17:36.687Z,70.66
2018-07-09T06:20:08.000Z,70.19
2018-07-09T06:22:36.966Z,70.63
2018-07-09T06:25:08.116Z,71.37
2018-07-09T06:27:37.314Z,70.97
2018-07-09T06:30:07.657Z,71.21
2018-07-09T06:32:37.583Z,70.31
2018-07-09T06:35:07.022Z,71.07
2018-07-09T06:37:37.319Z,69.95
2018-07-09T06:40:07.219Z,69.10
2018-07-09T06:42:37.149Z,68.80
2018-07-09T06:45:08.201Z,68.37
2018-07-09T06:47:37.531Z,67.76
2018-07-09T06:50:07.463Z,67.69
2018-07-09T06:52:37.163Z,67.61
2018-07-09T06:55:07.379Z,66.58
2018-07-09T06:57:36.880Z,67.94
2018-07-09T07:00:07.222Z,67.82
2018-07-09T07:02:36.753Z,65.95
2018-07-09T07:05:07.215Z,64.25
2018-07-09T07:07:40.997Z,59.97
2018-07-09T07:10:10.240Z,56.52
2018-07-09T07:12:39.348Z,52.85
2018-07-09T07:15:08.421Z,50.05
2018-07-09T07:17:37.592Z,48.26
2018-07-09T07:20:07.667Z,48.96
2018-07-09T07:22:37.538Z,47.97
2018-07-09T07:25:07.582Z,45.05
2018-07-09T07:27:38.014Z,43.55
2018-07-09T07:30:07.214Z,44.57
2018-07-09T07:32:36.327Z,43.84
2018-07-09T07:35:07.068Z,42.87
2018-07-09T07:37:37.659Z,41.47
2018-07-09T07:40:06.956Z,39.94
2018-07-09T07:42:36.825Z,38.92
2018-07-09T07:45:09.133Z,38.98
2018-07-09T07:47:39.075Z,40.59
2018-07-09T07:50:08.629Z,43.81
2018-07-09T07:52:38.514Z,44.25
2018-07-09T07:55:07.683Z,47.13
2018-07-09T07:57:38.107Z,49.03
2018-07-09T08:00:09.250Z,47.04
2018-07-09T08:02:39.827Z,47.66
2018-07-09T08:05:09.762Z,49.39
2018-07-09T08:07:40.380Z,49.94
2018-07-09T08:10:09.511Z,49.06
2018-07-09T08:15:07.898Z,47.56
2018-07-09T08:17:37.703Z,45.65
2018-07-09T08:20:07.993Z,47.09
2018-07-09T08:22:37.248Z,45.94
2018-07-09T08:25:07.679Z,45.66
2018-07-09T08:27:36.616Z,45.98
2018-07-09T08:30:07.698Z,48.99
2018-07-09T08:32:36.985Z,45.25
2018-07-09T08:35:07.311Z,43.44
2018-07-09T08:37:36.574Z,42.69
2018-07-09T08:40:08.867Z,41.20
2018-07-09T08:42:38.386Z,41.96
2018-07-09T08:45:07.647Z,38.50
2018-07-09T08:47:36.900Z,37.38
2018-07-09T08:50:07.568Z,36.67
2018-07-09T08:52:36.607Z,37.59
2018-07-09T08:55:07.696Z,37.43
2018-07-09T08:57:37.012Z,40.77
2018-07-09T09:00:07.306Z,41.00
2018-07-09T09:02:36.665Z,45.24
2018-07-09T09:05:09.219Z,43.22
2018-07-09T09:07:38.450Z,41.37
2018-07-09T09:10:07.500Z,39.43
2018-07-09T09:12:36.671Z,38.92
2018-07-09T09:15:07.302Z,40.04
2018-07-09T09:17:36.365Z,41.11
2018-07-09T09:20:07.494Z,41.00
2018-07-09T09:22:36.718Z,40.26
2018-07-09T09:25:08.009Z,40.85
2018-07-09T09:27:37.056Z,39.40
2018-07-09T09:30:07.754Z,39.26
2018-07-09T09:32:36.992Z,36.53
2018-07-09T09:35:07.493Z,35.87
2018-07-09T09:37:36.491Z,34.44
2018-07-09T09:40:07.767Z,33.12
2018-07-09T09:42:37.248Z,32.19
2018-07-09T09:45:08.020Z,32.73
2018-07-09T09:47:37.095Z,32.95
2018-07-09T09:50:07.560Z,32.47
2018-07-09T09:52:36.815Z,31.95
2018-07-09T09:55:07.590Z,30.83
2018-07-09T09:57:37.291Z,31.76
2018-07-09T10:00:07.839Z,31.42
2018-07-09T10:02:37.799Z,29.54
2018-07-09T10:05:07.712Z,28.71
2018-07-09T10:07:37.434Z,31.10
2018-07-09T10:10:07.541Z,33.05
2018-07-09T10:12:37.339Z,32.67
2018-07-09T10:15:07.387Z,31.31
2018-07-09T10:17:37.093Z,29.81
2018-07-09T10:20:07.481Z,30.00
2018-07-09T10:22:36.806Z,30.74
2018-07-09T10:25:07.738Z,29.37
2018-07-09T10:27:36.967Z,31.66
2018-07-09T10:30:08.099Z,31.35
2018-07-09T10:32:37.409Z,31.98
2018-07-09T10:35:07.850Z,30.95
2018-07-09T10:37:37.187Z,33.00
2018-07-09T10:40:08.098Z,33.63
2018-07-09T10:42:37.615Z,35.88
2018-07-09T10:45:08.323Z,37.77
2018-07-09T10:47:37.562Z,38.14
2018-07-09T10:50:08.484Z,35.84
2018-07-09T10:52:37.743Z,34.47
2018-07-09T10:55:08.576Z,32.17
2018-07-09T10:57:37.756Z,31.12
2018-07-09T11:00:07.518Z,31.51
2018-07-09T11:02:37.094Z,29.97
2018-07-09T11:05:07.669Z,30.51
2018-07-09T11:07:37.580Z,30.92
2018-07-09T11:10:07.696Z,33.25
2018-07-09T11:12:37.194Z,34.89
2018-07-09T11:15:07.499Z,36.76
2018-07-09T11:17:36.563Z,36.23
2018-07-09T11:20:07.322Z,36.90
2018-07-09T11:22:36.438Z,35.20
2018-07-09T11:25:07.492Z,35.67
2018-07-09T11:27:36.514Z,36.33
2018-07-09T11:30:07.324Z,35.84
2018-07-09T11:32:36.564Z,37.54
2018-07-09T11:35:07.503Z,39.26
2018-07-09T11:37:36.450Z,39.41
2018-07-09T11:40:07.472Z,38.64
2018-07-09T11:42:36.555Z,40.05
2018-07-09T11:45:07.528Z,40.51
2018-07-09T11:47:36.468Z,40.86
2018-07-09T11:50:10.980Z,40.99
2018-07-09T11:52:41.337Z,40.91
2018-07-09T11:55:10.356Z,40.99
2018-07-09T11:57:39.328Z,41.91
2018-07-09T12:00:08.666Z,43.33
2018-07-09T12:02:38.154Z,42.94
2018-07-09T12:05:07.703Z,42.39
2018-07-09T12:07:36.832Z,43.37
2018-07-09T12:10:07.763Z,42.96
2018-07-09T12:12:37.046Z,43.07
2018-07-09T12:15:07.667Z,41.20
2018-07-09T12:17:37.496Z,41.15
2018-07-09T12:20:07.507Z,41.76
2018-07-09T12:22:36.772Z,42.40
2018-07-09T12:25:07.337Z,40.69
2018-07-09T12:27:36.647Z,42.00
2018-07-09T12:30:09.014Z,41.83
2018-07-09T12:32:38.514Z,41.58
2018-07-09T12:35:07.622Z,42.05
2018-07-09T12:37:36.905Z,42.72
2018-07-09T12:40:07.824Z,42.93
2018-07-09T12:42:37.014Z,42.43
2018-07-09T12:45:08.051Z,42.70
2018-07-09T12:47:37.655Z,42.51
2018-07-09T12:50:08.368Z,43.66
2018-07-09T12:52:37.518Z,44.46
2018-07-09T12:55:07.571Z,43.59
2018-07-09T12:57:36.889Z,42.72
2018-07-09T13:00:09.745Z,41.21
2018-07-09T13:02:39.102Z,40.89
2018-07-09T13:05:08.276Z,41.07
2018-07-09T13:07:37.495Z,40.40
2018-07-09T13:10:08.381Z,40.17
2018-07-09T13:12:37.542Z,41.03
2018-07-09T13:15:07.554Z,40.81
2018-07-09T13:17:37.513Z,40.84
2018-07-09T13:20:07.487Z,41.00
2018-07-09T13:22:36.673Z,41.27
2018-07-09T13:25:09.463Z,41.97
2018-07-09T13:27:38.415Z,43.41
2018-07-09T13:30:07.563Z,42.33
2018-07-09T13:32:36.910Z,42.44
2018-07-09T13:35:07.793Z,42.66
2018-07-09T13:37:36.930Z,41.73
2018-07-09T13:40:07.394Z,41.40
2018-07-09T13:42:36.816Z,41.35
2018-07-09T13:45:09.137Z,42.23
2018-07-09T13:47:38.621Z,42.81
2018-07-09T13:50:07.831Z,42.15
2018-07-09T13:52:37.119Z,42.41
2018-07-09T13:55:08.071Z,41.81
2018-07-09T13:57:37.391Z,42.85
2018-07-09T14:00:07.886Z,41.55
2018-07-09T14:02:36.891Z,41.39
2018-07-09T14:05:09.402Z,42.60
2018-07-09T14:07:39.489Z,41.49
2018-07-09T14:10:09.026Z,40.97
2018-07-09T14:12:38.147Z,41.53
2018-07-09T14:15:08.146Z,43.64
2018-07-09T14:17:37.199Z,42.32
2018-07-09T14:20:21.342Z,42.45
2018-07-09T14:22:50.458Z,41.98
2018-07-09T14:25:20.082Z,43.39
2018-07-09T14:27:49.479Z,43.46
2018-07-09T14:30:19.172Z,43.38
2018-07-09T14:32:48.453Z,42.56
2018-07-09T14:35:17.548Z,41.70
2018-07-09T14:37:47.507Z,43.22
2018-07-09T14:40:16.630Z,42.66
2018-07-09T14:42:45.955Z,42.23
2018-07-09T14:45:15.256Z,42.66
2018-07-09T14:47:44.322Z,42.73
2018-07-09T14:50:13.515Z,43.23
2018-07-09T14:52:42.616Z,44.06
2018-07-09T14:55:12.122Z,44.13
2018-07-09T14:57:41.268Z,44.46
2018-07-09T15:00:10.652Z,45.10
2018-07-09T15:02:40.737Z,45.52
2018-07-09T15:05:09.924Z,45.46
2018-07-09T15:07:40.118Z,45.79
2018-07-09T15:10:09.409Z,45.09
2018-07-09T15:12:38.674Z,45.70
2018-07-09T15:15:07.880Z,46.65
2018-07-09T15:17:36.924Z,45.98
2018-07-09T15:20:08.003Z,46.51
2018-07-09T15:22:37.502Z,46.43
2018-07-09T15:25:07.726Z,47.08
2018-07-09T15:27:36.972Z,46.70
2018-07-09T15:30:09.871Z,46.37
2018-07-09T15:32:38.958Z,46.00
2018-07-09T15:35:08.982Z,46.07
2018-07-09T15:37:38.091Z,46.31
2018-07-09T15:40:08.551Z,45.73
2018-07-09T15:42:38.067Z,46.55
2018-07-09T15:45:08.282Z,46.44
2018-07-09T15:47:38.147Z,46.33
2018-07-09T15:50:08.222Z,46.77
2018-07-09T15:52:37.200Z,47.23
2018-07-09T15:55:09.130Z,46.34
2018-07-09T15:57:38.444Z,46.68
2018-07-09T16:00:08.133Z,46.19
2018-07-09T16:02:37.199Z,46.88
2018-07-09T16:05:07.863Z,47.39
2018-07-09T16:07:37.067Z,45.73
2018-07-09T16:10:07.818Z,46.29
2018-07-09T16:12:37.091Z,46.07
2018-07-09T16:15:07.783Z,46.84
2018-07-09T16:17:37.042Z,46.01
2018-07-09T16:20:08.138Z,46.27
2018-07-09T16:22:38.237Z,46.64
2018-07-09T16:25:08.683Z,46.55
2018-07-09T16:27:37.680Z,46.63
2018-07-09T16:30:08.676Z,47.06
2018-07-09T16:32:38.734Z,46.64
2018-07-09T16:35:07.869Z,46.97
2018-07-09T16:37:36.946Z,47.52
2018-07-09T16:40:07.759Z,47.24
2018-07-09T16:42:36.996Z,47.43
2018-07-09T16:45:09.907Z,47.09
2018-07-09T16:47:39.578Z,47.24
2018-07-09T16:50:09.113Z,47.95
2018-07-09T16:52:38.477Z,47.81
2018-07-09T16:55:08.458Z,47.72
2018-07-09T16:57:37.799Z,47.59
2018-07-09T17:00:08.351Z,48.93
2018-07-09T17:02:38.027Z,48.46
2018-07-09T17:05:08.372Z,49.22
2018-07-09T17:07:37.795Z,48.74
2018-07-09T17:10:08.281Z,48.93
2018-07-09T17:12:37.563Z,49.23
2018-07-09T17:15:08.181Z,49.81
2018-07-09T17:17:38.044Z,49.80
2018-07-09T17:20:07.982Z,50.17
2018-07-09T17:22:37.046Z,50.78
2018-07-09T17:25:10.522Z,50.30
2018-07-09T17:27:39.754Z,50.68
2018-07-09T17:30:08.943Z,50.89
2018-07-09T17:32:38.538Z,51.61
2018-07-09T17:35:07.720Z,52.12
2018-07-09T17:37:36.968Z,52.30
2018-07-09T17:40:08.140Z,52.64
2018-07-09T17:42:37.279Z,52.93
2018-07-09T17:45:08.449Z,52.47
2018-07-09T17:47:38.131Z,52.65
2018-07-09T17:50:08.547Z,52.58
2018-07-09T17:52:37.548Z,52.82
2018-07-09T17:55:08.219Z,52.34
2018-07-09T17:57:37.182Z,51.90
2018-07-09T18:00:07.794Z,52.04
2018-07-09T18:02:37.453Z,52.71
2018-07-09T18:05:08.319Z,53.14
2018-07-09T18:07:37.423Z,53.53
2018-07-09T18:10:07.035Z,53.51
2018-07-09T18:12:36.190Z,53.70
2018-07-09T18:15:07.801Z,53.76
2018-07-09T18:17:37.038Z,53.69
2018-07-09T18:20:07.135Z,54.37
2018-07-09T18:22:36.275Z,55.08
2018-07-09T18:25:08.335Z,54.66
2018-07-09T18:27:37.715Z,54.65
2018-07-09T18:30:07.129Z,54.95
2018-07-09T18:32:36.462Z,55.67
2018-07-09T18:35:08.310Z,56.24
2018-07-09T18:37:37.588Z,55.92
2018-07-09T18:40:07.887Z,56.27
2018-07-09T18:42:37.209Z,55.95
2018-07-09T18:45:08.653Z,57.01
2018-07-09T18:47:38.230Z,57.01
2018-07-09T18:50:07.193Z,57.47
2018-07-09T18:52:37.693Z,57.62
2018-07-09T18:55:07.804Z,57.43
2018-07-09T18:57:37.110Z,58.28
2018-07-09T19:00:07.535Z,57.68
2018-07-09T19:02:36.834Z,57.86
2018-07-09T19:05:07.344Z,57.42
2018-07-09T19:07:41.787Z,58.14
2018-07-09T19:10:11.102Z,58.85
2018-07-09T19:12:40.170Z,58.64
2018-07-09T19:15:09.680Z,58.82
2018-07-09T19:18:03.580Z,59.22
2018-07-09T19:20:43.543Z,59.21
2018-07-09T19:23:12.107Z,59.31
2018-07-09T19:25:39.887Z,59.41
2018-07-09T19:28:08.611Z,60.02
2018-07-09T19:30:36.710Z,60.43
2018-07-09T19:33:04.503Z,59.79
2018-07-09T19:35:32.660Z,60.60
2018-07-09T19:38:02.268Z,60.95
2018-07-09T19:40:29.836Z,60.20
2018-07-09T19:42:57.629Z,60.74
2018-07-09T19:45:26.031Z,60.67
2018-07-09T19:47:54.848Z,60.59
2018-07-09T19:50:22.585Z,60.72
2018-07-09T19:52:50.382Z,61.67
2018-07-09T19:55:18.159Z,61.95
2018-07-09T19:57:45.918Z,62.53
2018-07-09T20:00:13.674Z,63.49
2018-07-09T20:02:41.471Z,63.51
2018-07-09T20:05:09.496Z,63.86
2018-07-09T20:07:37.978Z,65.03
2018-07-09T20:10:10.907Z,65.10
2018-07-09T20:12:43.929Z,65.33
2018-07-09T20:15:16.856Z,65.88
2018-07-09T20:17:44.670Z,66.44
2018-07-09T20:20:12.492Z,67.14
2018-07-09T20:22:40.234Z,67.55
2018-07-09T20:25:08.006Z,68.29
2018-07-09T20:27:36.155Z,68.62
2018-07-09T20:30:07.233Z,69.05
2018-07-09T20:32:35.015Z,69.25
2018-07-09T20:35:05.380Z,69.78
2018-07-09T20:37:33.181Z,69.01
2018-07-09T20:42:34.140Z,69.97
2018-07-09T20:45:05.552Z,69.45
2018-07-09T20:47:33.343Z,70.07
2018-07-09T20:50:04.990Z,71.11
2018-07-09T20:52:32.804Z,71.58
2018-07-09T20:55:04.406Z,71.78
2018-07-09T20:57:32.218Z,71.95
2018-07-09T20:59:59.988Z,72.14
2018-07-09T21:02:33.537Z,72.09
2018-07-09T21:05:04.480Z,71.62
2018-07-09T21:07:33.267Z,72.66
2018-07-09T21:12:39.220Z,72.69
2018-07-09T21:15:08.851Z,72.16
2018-07-09T21:17:36.618Z,71.87
2018-07-09T21:20:05.942Z,71.66
2018-07-09T21:22:33.750Z,71.92
2018-07-09T21:25:06.472Z,71.98
2018-07-09T21:27:34.240Z,71.86
2018-07-09T21:30:05.007Z,71.94
2018-07-09T21:32:32.825Z,71.69
2018-07-09T21:35:05.404Z,72.45
2018-07-09T21:37:33.223Z,72.33
2018-07-09T21:40:04.527Z,72.66
2018-07-09T21:42:32.372Z,72.69
2018-07-09T21:45:00.180Z,72.64
2018-07-09T21:47:30.768Z,72.49
2018-07-09T21:49:58.770Z,73.77
2018-07-09T21:52:26.531Z,74.41
2018-07-09T21:54:54.317Z,74.21
2018-07-09T21:57:22.304Z,74.17
2018-07-09T21:59:50.120Z,73.75
2018-07-09T22:02:17.944Z,73.72
2018-07-09T22:04:45.723Z,73.99
2018-07-09T22:07:13.502Z,74.27
2018-07-09T22:09:41.286Z,74.49
2018-07-09T22:12:09.063Z,74.00
2018-07-09T22:14:36.844Z,74.09
2018-07-09T22:17:04.599Z,74.71
2018-07-09T22:19:32.391Z,75.30
2018-07-09T22:22:00.260Z,74.33
2018-07-09T22:24:28.448Z,75.72
2018-07-09T22:26:56.209Z,75.66
2018-07-09T22:29:23.974Z,75.28
2018-07-09T22:31:54.369Z,75.31
2018-07-09T22:34:23.479Z,76.25
2018-07-09T22:36:52.540Z,76.38
2018-07-09T22:39:22.071Z,77.05
2018-07-09T22:41:51.174Z,77.56
2018-07-09T22:44:21.242Z,77.71
2018-07-09T22:46:50.863Z,77.80
2018-07-09T22:49:19.973Z,78.26
2018-07-09T22:51:49.391Z,78.48
2018-07-09T22:54:18.732Z,78.30
2018-07-09T22:56:48.089Z,78.84
2018-07-09T22:59:17.379Z,78.86
2018-07-09T23:01:46.605Z,78.69
2018-07-09T23:04:15.572Z,79.16
2018-07-09T23:06:45.104Z,79.09
2018-07-09T23:10:34.130Z,78.77
2018-07-09T23:13:25.401Z,78.38
2018-07-09T23:18:06.940Z,78.00
2018-07-09T23:22:51.617Z,77.52
2018-07-09T23:25:19.356Z,78.50
2018-07-09T23:27:47.324Z,78.06
2018-07-09T23:30:15.079Z,77.98
2018-07-09T23:32:42.879Z,77.53
2018-07-09T23:35:10.642Z,76.66
2018-07-09T23:37:38.418Z,76.54
2018-07-09T23:40:06.166Z,76.79
2018-07-09T23:42:34.143Z,75.72
2018-07-09T23:45:05.173Z,76.20
2018-07-09T23:47:32.970Z,75.76
2018-07-09T23:50:03.777Z,74.64
2018-07-09T23:52:31.554Z,73.29
2018-07-09T23:54:59.287Z,73.58
2018-07-09T23:59:41.320Z,72.16
